createdAt,value
2023-04-10T00:00:25.327Z,4.57
2023-04-10T00:01:26.068Z,4.48
2023-04-10T00:02:27.433Z,4.5
2023-04-10T00:03:28.473Z,4.43
2023-04-10T00:04:29.173Z,4.43
2023-04-10T00:05:29.263Z,4.46
2023-04-10T00:06:30.051Z,4.32
2023-04-10T00:07:30.819Z,4.39
2023-04-10T00:08:31.334Z,4.4
2023-04-10T00:09:32.431Z,4.49
2023-04-10T00:10:32.858Z,4.57
2023-04-10T00:11:33.363Z,4.45
2023-04-10T00:12:34.044Z,4.57
2023-04-10T00:13:34.521Z,4.63
2023-04-10T00:14:35.007Z,4.61
2023-04-10T00:15:35.110Z,4.66
2023-04-10T00:16:36.035Z,4.75
2023-04-10T00:17:37.027Z,4.7
2023-04-10T00:18:37.299Z,4.76
2023-04-10T00:19:38.032Z,4.79
2023-04-10T00:20:38.826Z,4.82
2023-04-10T00:21:39.530Z,4.82
2023-04-10T00:22:39.618Z,4.78
2023-04-10T00:23:40.580Z,4.79
2023-04-10T00:24:41.588Z,4.86
2023-04-10T00:25:42.284Z,4.76
2023-04-10T00:26:43.183Z,4.86
2023-04-10T00:27:43.460Z,4.84
2023-04-10T00:28:43.990Z,4.86
2023-04-10T00:29:44.708Z,4.82
2023-04-10T00:30:44.935Z,4.78
2023-04-10T00:31:46.560Z,4.82
2023-04-10T00:32:47.435Z,4.78
2023-04-10T00:33:47.559Z,4.9
2023-04-10T00:34:47.679Z,4.84
2023-04-10T00:35:48.784Z,4.89
2023-04-10T00:36:49.232Z,4.84
2023-04-10T00:37:49.935Z,4.79
2023-04-10T00:38:50.418Z,4.79
2023-04-10T00:39:51.349Z,4.87
2023-04-10T00:40:51.984Z,4.82
2023-04-10T00:41:52.127Z,4.82
2023-04-10T00:42:52.090Z,4.79
2023-04-10T00:43:53.449Z,4.82
2023-04-10T00:44:52.900Z,4.71
2023-04-10T00:45:55.644Z,4.74
2023-04-10T00:47:54.880Z,4.7
2023-04-10T00:48:55.308Z,4.63
2023-04-10T00:49:56.050Z,4.68
2023-04-10T00:50:56.890Z,4.67
2023-04-10T00:51:58.922Z,4.68
2023-04-10T00:52:58.666Z,4.6
2023-04-10T00:53:59.741Z,4.7
2023-04-10T00:55:00.674Z,4.63
2023-04-10T00:56:01.211Z,4.64
2023-04-10T00:57:01.586Z,4.68
2023-04-10T00:58:02.561Z,4.64
2023-04-10T00:59:06.613Z,4.58
2023-04-10T01:00:03.225Z,4.61
2023-04-10T01:01:03.676Z,4.5
2023-04-10T01:02:05.145Z,4.5
2023-04-10T01:03:05.495Z,4.56
2023-04-10T01:04:06.474Z,4.56
2023-04-10T01:06:06.109Z,4.45
2023-04-10T01:07:06.581Z,4.48
2023-04-10T01:08:06.710Z,4.45
2023-04-10T01:09:06.821Z,4.46
2023-04-10T01:10:07.123Z,4.45
2023-04-10T01:11:07.447Z,4.5
2023-04-10T01:12:07.998Z,4.48
2023-04-10T01:13:08.903Z,4.43
2023-04-10T01:14:09.196Z,4.46
2023-04-10T01:15:10.311Z,4.4
2023-04-10T01:16:10.203Z,4.3
2023-04-10T01:17:11.151Z,4.31
2023-04-10T01:18:11.294Z,4.28
2023-04-10T01:19:11.620Z,4.31
2023-04-10T01:20:12.531Z,4.28
2023-04-10T01:21:12.974Z,4.24
2023-04-10T01:22:13.669Z,4.2
2023-04-10T01:23:14.404Z,4.31
2023-04-10T01:24:15.150Z,4.18
2023-04-10T01:25:15.861Z,4.13
2023-04-10T01:26:16.165Z,4.32
2023-04-10T01:27:16.861Z,4.28
2023-04-10T01:28:16.943Z,4.24
2023-04-10T01:29:17.675Z,4.2
2023-04-10T01:30:18.400Z,4.21
2023-04-10T01:31:19.485Z,4.2
2023-04-10T01:32:20.216Z,4.21
2023-04-10T01:33:20.581Z,4.18
2023-04-10T01:34:21.245Z,4.2
2023-04-10T01:35:22.218Z,4.18
2023-04-10T01:36:23.010Z,4.24
2023-04-10T01:37:23.296Z,4.18
2023-04-10T01:38:23.798Z,4.2
2023-04-10T01:39:24.680Z,4.22
2023-04-10T01:40:25.612Z,4.28
2023-04-10T01:41:26.005Z,4.27
2023-04-10T01:42:26.941Z,4.28
2023-04-10T01:43:27.740Z,4.32
2023-04-10T01:44:28.036Z,4.32
2023-04-10T01:45:28.952Z,4.25
2023-04-10T01:46:29.930Z,4.2
2023-04-10T01:47:30.152Z,4.21
2023-04-10T01:48:30.986Z,4.3
2023-04-10T01:49:31.526Z,4.3
2023-04-10T01:50:32.447Z,4.2
2023-04-10T01:51:33.018Z,4.21
2023-04-10T01:52:33.532Z,4.22
2023-04-10T01:53:33.632Z,4.24
2023-04-10T01:54:34.428Z,4.28
2023-04-10T01:55:35.159Z,4.22
2023-04-10T01:56:35.866Z,4.16
2023-04-10T01:57:36.808Z,4.18
2023-04-10T01:58:37.509Z,4.22
2023-04-10T01:59:37.990Z,4.21
2023-04-10T02:00:38.271Z,4.22
2023-04-10T02:01:39.559Z,4.14
2023-04-10T02:02:40.071Z,4.22
2023-04-10T02:03:40.948Z,4.16
2023-04-10T02:04:41.343Z,4.16
2023-04-10T02:05:41.136Z,4.13
2023-04-10T02:06:42.071Z,4.2
2023-04-10T02:07:42.569Z,4.12
2023-04-10T02:08:43.447Z,4.21
2023-04-10T02:09:43.950Z,4.2
2023-04-10T02:10:44.441Z,4.2
2023-04-10T02:11:44.724Z,4.18
2023-04-10T02:12:45.031Z,4.21
2023-04-10T02:13:45.357Z,4.14
2023-04-10T02:14:58.942Z,4.18
2023-04-10T02:15:47.274Z,4.14
2023-04-10T02:16:47.483Z,4.13
2023-04-10T02:17:47.893Z,4.09
2023-04-10T02:18:48.579Z,4.04
2023-04-10T02:19:48.913Z,4.13
2023-04-10T02:20:49.669Z,4.13
2023-04-10T02:21:50.268Z,4.06
2023-04-10T02:22:50.754Z,4.04
2023-04-10T02:23:51.436Z,4.07
2023-04-10T02:24:51.622Z,4.12
2023-04-10T02:25:52.353Z,4.06
2023-04-10T02:26:52.976Z,4.02
2023-04-10T02:27:53.899Z,4.03
2023-04-10T02:28:54.380Z,4
2023-04-10T02:29:55.099Z,4.02
2023-04-10T02:30:55.669Z,4.02
2023-04-10T02:31:55.788Z,4.07
2023-04-10T02:32:56.658Z,4.07
2023-04-10T02:33:57.386Z,4.1
2023-04-10T02:34:57.924Z,4
2023-04-10T02:35:58.972Z,4.02
2023-04-10T02:36:58.791Z,3.99
2023-04-10T02:37:59.067Z,4.03
2023-04-10T02:38:59.624Z,4.02
2023-04-10T02:40:00.323Z,4.02
2023-04-10T02:41:01.066Z,4
2023-04-10T02:42:01.259Z,4.02
2023-04-10T02:43:01.963Z,4
2023-04-10T02:44:02.516Z,3.94
2023-04-10T02:45:03.013Z,3.99
2023-04-10T02:46:03.525Z,3.99
2023-04-10T02:47:04.197Z,4.06
2023-04-10T02:48:05.350Z,4.06
2023-04-10T02:49:05.898Z,4.03
2023-04-10T02:50:07.453Z,4.06
2023-04-10T02:51:08.196Z,4.16
2023-04-10T02:52:08.627Z,4.14
2023-04-10T02:53:09.329Z,4.16
2023-04-10T02:54:09.864Z,4.2
2023-04-10T02:55:10.537Z,4.24
2023-04-10T02:56:11.214Z,4.32
2023-04-10T02:57:11.887Z,4.25
2023-04-10T02:58:15.376Z,4.31
2023-04-10T02:59:13.371Z,4.27
2023-04-10T03:00:13.900Z,4.3
2023-04-10T03:01:14.798Z,4.27
2023-04-10T03:02:15.156Z,4.3
2023-04-10T03:03:17.027Z,4.31
2023-04-10T03:04:17.441Z,4.36
2023-04-10T03:05:17.211Z,4.34
2023-04-10T03:06:18.158Z,4.28
2023-04-10T03:07:19.087Z,4.27
2023-04-10T03:08:19.246Z,4.3
2023-04-10T03:09:19.583Z,4.21
2023-04-10T03:10:20.260Z,4.2
2023-04-10T03:11:20.202Z,4.14
2023-04-10T03:12:21.357Z,4.14
2023-04-10T03:13:22.246Z,4.16
2023-04-10T03:14:22.556Z,4.12
2023-04-10T03:15:22.848Z,4.09
2023-04-10T03:16:23.683Z,4.04
2023-04-10T03:17:23.719Z,4.04
2023-04-10T03:18:24.346Z,4.02
2023-04-10T03:19:24.903Z,4
2023-04-10T03:20:25.468Z,3.91
2023-04-10T03:21:26.169Z,3.91
2023-04-10T03:22:26.359Z,3.95
2023-04-10T03:23:27.054Z,3.94
2023-04-10T03:24:27.964Z,3.89
2023-04-10T03:25:28.470Z,3.89
2023-04-10T03:26:29.177Z,3.89
2023-04-10T03:27:29.867Z,3.94
2023-04-10T03:28:30.316Z,3.86
2023-04-10T03:29:30.821Z,3.95
2023-04-10T03:30:31.739Z,3.92
2023-04-10T03:31:32.961Z,3.89
2023-04-10T03:32:32.791Z,3.86
2023-04-10T03:33:33.475Z,3.89
2023-04-10T03:34:33.850Z,3.89
2023-04-10T03:35:34.651Z,3.88
2023-04-10T03:36:34.875Z,3.88
2023-04-10T03:37:34.791Z,3.88
2023-04-10T03:38:35.469Z,3.85
2023-04-10T03:39:36.170Z,3.68
2023-04-10T03:40:36.660Z,3.68
2023-04-10T03:41:37.223Z,3.71
2023-04-10T03:42:37.834Z,3.7
2023-04-10T03:43:38.420Z,3.81
2023-04-10T03:44:38.896Z,3.71
2023-04-10T03:45:39.796Z,3.71
2023-04-10T03:46:40.408Z,3.84
2023-04-10T03:47:41.228Z,3.82
2023-04-10T03:48:42.368Z,3.76
2023-04-10T03:49:43.089Z,3.67
2023-04-10T03:50:43.190Z,3.81
2023-04-10T03:51:44.108Z,3.7
2023-04-10T03:52:44.863Z,3.71
2023-04-10T03:53:45.366Z,3.76
2023-04-10T03:54:46.327Z,3.64
2023-04-10T03:55:47.050Z,3.78
2023-04-10T03:56:48.023Z,3.67
2023-04-10T03:57:48.947Z,3.73
2023-04-10T03:58:49.645Z,3.73
2023-04-10T03:59:49.726Z,3.7
2023-04-10T04:00:50.414Z,3.7
2023-04-10T04:01:51.554Z,3.76
2023-04-10T04:02:52.633Z,3.73
2023-04-10T04:03:53.824Z,3.7
2023-04-10T04:04:52.843Z,3.63
2023-04-10T04:05:53.678Z,3.67
2023-04-10T04:06:53.796Z,3.7
2023-04-10T04:07:53.920Z,3.68
2023-04-10T04:08:54.624Z,3.59
2023-04-10T04:09:57.001Z,3.7
2023-04-10T04:10:55.493Z,3.63
2023-04-10T04:11:56.405Z,3.61
2023-04-10T04:12:56.640Z,3.59
2023-04-10T04:13:56.884Z,3.61
2023-04-10T04:14:57.401Z,3.64
2023-04-10T04:15:57.691Z,3.63
2023-04-10T04:16:58.567Z,3.73
2023-04-10T04:17:59.547Z,3.61
2023-04-10T04:19:00.169Z,3.61
2023-04-10T04:20:00.679Z,3.66
2023-04-10T04:21:01.423Z,3.68
2023-04-10T04:22:02.218Z,3.63
2023-04-10T04:23:02.786Z,3.64
2023-04-10T04:24:03.319Z,3.64
2023-04-10T04:25:03.647Z,3.68
2023-04-10T04:26:04.571Z,3.7
2023-04-10T04:27:04.885Z,3.66
2023-04-10T04:28:05.389Z,3.73
2023-04-10T04:29:05.688Z,3.68
2023-04-10T04:30:06.175Z,3.67
2023-04-10T04:31:06.897Z,3.64
2023-04-10T04:32:07.705Z,3.59
2023-04-10T04:33:08.261Z,3.58
2023-04-10T04:34:09.020Z,3.63
2023-04-10T04:35:09.322Z,3.56
2023-04-10T04:36:10.157Z,3.63
2023-04-10T04:37:10.920Z,3.66
2023-04-10T04:38:11.627Z,3.58
2023-04-10T04:39:11.954Z,3.59
2023-04-10T04:40:12.649Z,3.59
2023-04-10T04:41:12.973Z,3.63
2023-04-10T04:42:14.041Z,3.63
2023-04-10T04:43:14.504Z,3.53
2023-04-10T04:44:14.594Z,3.58
2023-04-10T04:45:15.116Z,3.5
2023-04-10T04:46:15.887Z,3.5
2023-04-10T04:47:16.661Z,3.55
2023-04-10T04:48:17.437Z,3.52
2023-04-10T04:49:18.180Z,3.5
2023-04-10T04:50:18.873Z,3.55
2023-04-10T04:51:19.618Z,3.56
2023-04-10T04:52:20.339Z,3.46
2023-04-10T04:53:20.988Z,3.49
2023-04-10T04:54:21.901Z,3.59
2023-04-10T04:55:21.812Z,3.5
2023-04-10T04:56:22.541Z,3.46
2023-04-10T04:57:23.460Z,3.55
2023-04-10T04:58:23.729Z,3.56
2023-04-10T04:59:23.848Z,3.61
2023-04-10T05:00:24.344Z,3.61
2023-04-10T05:01:24.929Z,3.56
2023-04-10T05:02:26.554Z,3.58
2023-04-10T05:03:26.556Z,3.52
2023-04-10T05:04:27.062Z,3.5
2023-04-10T05:05:26.515Z,3.5
2023-04-10T05:06:27.036Z,3.55
2023-04-10T05:07:27.778Z,3.56
2023-04-10T05:08:28.565Z,3.5
2023-04-10T05:09:29.282Z,3.53
2023-04-10T05:10:29.783Z,3.52
2023-04-10T05:11:30.269Z,3.56
2023-04-10T05:12:30.478Z,3.52
2023-04-10T05:13:30.899Z,3.58
2023-04-10T05:14:31.180Z,3.55
2023-04-10T05:15:32.247Z,3.56
2023-04-10T05:16:32.087Z,3.55
2023-04-10T05:17:32.670Z,3.49
2023-04-10T05:18:33.302Z,3.58
2023-04-10T05:19:34.120Z,3.63
2023-04-10T05:20:34.440Z,3.52
2023-04-10T05:21:34.793Z,3.58
2023-04-10T05:22:35.537Z,3.64
2023-04-10T05:23:35.942Z,3.67
2023-04-10T05:24:36.851Z,3.58
2023-04-10T05:25:37.371Z,3.63
2023-04-10T05:26:37.870Z,3.68
2023-04-10T05:27:38.779Z,3.71
2023-04-10T05:28:38.882Z,3.7
2023-04-10T05:29:39.419Z,3.7
2023-04-10T05:30:40.175Z,3.67
2023-04-10T05:31:41.356Z,3.78
2023-04-10T05:32:41.539Z,3.77
2023-04-10T05:33:42.283Z,3.84
2023-04-10T05:34:42.985Z,3.91
2023-04-10T05:35:43.850Z,3.88
2023-04-10T05:36:44.268Z,3.96
2023-04-10T05:37:45.164Z,4.03
2023-04-10T05:38:45.340Z,4.03
2023-04-10T05:39:45.303Z,4.03
2023-04-10T05:40:45.805Z,4.07
2023-04-10T05:41:47.085Z,4.13
2023-04-10T05:42:47.609Z,4.22
2023-04-10T05:43:48.065Z,4.21
2023-04-10T05:44:48.731Z,4.32
2023-04-10T05:45:49.616Z,4.3
2023-04-10T05:46:50.537Z,4.38
2023-04-10T05:47:51.510Z,4.5
2023-04-10T05:48:51.351Z,4.52
2023-04-10T05:49:52.070Z,4.6
2023-04-10T05:50:52.390Z,4.5
2023-04-10T05:51:52.914Z,4.57
2023-04-10T05:52:52.819Z,4.66
2023-04-10T05:53:53.042Z,4.71
2023-04-10T05:54:53.761Z,4.78
2023-04-10T05:55:54.438Z,4.75
2023-04-10T05:56:54.786Z,4.87
2023-04-10T05:57:55.492Z,4.95
2023-04-10T05:58:56.466Z,5.07
2023-04-10T05:59:57.419Z,5.13
2023-04-10T06:00:57.914Z,5.13
2023-04-10T06:01:58.736Z,5.2
2023-04-10T06:02:59.830Z,5.25
2023-04-10T06:04:00.671Z,5.4
2023-04-10T06:05:00.587Z,5.43
2023-04-10T06:06:00.416Z,5.54
2023-04-10T06:07:00.752Z,5.59
2023-04-10T06:08:03.935Z,5.55
2023-04-10T06:10:02.458Z,5.8
2023-04-10T06:11:03.190Z,5.73
2023-04-10T06:12:03.701Z,5.83
2023-04-10T06:13:03.674Z,5.91
2023-04-10T06:14:03.955Z,5.91
2023-04-10T06:15:04.595Z,5.94
2023-04-10T06:16:05.743Z,5.97
2023-04-10T06:17:05.853Z,5.9
2023-04-10T06:18:05.856Z,6.05
2023-04-10T06:19:06.996Z,6.02
2023-04-10T06:20:07.111Z,6.15
2023-04-10T06:21:07.456Z,6.13
2023-04-10T06:22:08.241Z,6.22
2023-04-10T06:23:08.978Z,6.19
2023-04-10T06:24:12.851Z,6.22
2023-04-10T06:25:10.860Z,6.28
2023-04-10T06:26:11.762Z,6.35
2023-04-10T06:27:12.663Z,6.36
2023-04-10T06:28:13.159Z,6.43
2023-04-10T06:29:13.468Z,6.54
2023-04-10T06:30:14.560Z,6.6
2023-04-10T06:31:15.011Z,6.86
2023-04-10T06:32:15.467Z,7.44
2023-04-10T06:33:16.357Z,8.17
2023-04-10T06:34:16.511Z,8.87
2023-04-10T06:35:17.047Z,9.63
2023-04-10T06:36:18.268Z,10.58
2023-04-10T06:37:18.782Z,11.19
2023-04-10T06:38:19.542Z,11.91
2023-04-10T06:39:20.476Z,12.58
2023-04-10T06:40:21.050Z,13.33
2023-04-10T06:41:22.146Z,13.73
2023-04-10T06:42:22.850Z,14.15
2023-04-10T06:43:23.574Z,14.49
2023-04-10T06:44:23.980Z,14.61
2023-04-10T06:45:24.834Z,15.02
2023-04-10T06:46:25.103Z,15.14
2023-04-10T06:47:25.754Z,15.32
2023-04-10T06:48:26.161Z,15.35
2023-04-10T06:49:26.670Z,15.29
2023-04-10T06:50:27.579Z,15.22
2023-04-10T06:51:28.278Z,15.32
2023-04-10T06:52:28.808Z,15.51
2023-04-10T06:53:29.746Z,15.72
2023-04-10T06:54:29.989Z,15.83
2023-04-10T06:55:30.721Z,15.9
2023-04-10T06:56:31.219Z,15.91
2023-04-10T06:57:31.727Z,16
2023-04-10T06:58:32.656Z,16.1
2023-04-10T06:59:33.374Z,16.22
2023-04-10T07:00:34.092Z,16.29
2023-04-10T07:01:34.865Z,16.29
2023-04-10T07:02:35.096Z,16.43
2023-04-10T07:03:36.052Z,16.68
2023-04-10T07:04:37.154Z,16.79
2023-04-10T07:05:41.593Z,17.02
2023-04-10T07:06:38.486Z,17.34
2023-04-10T07:07:39.295Z,17.68
2023-04-10T07:08:39.912Z,18.03
2023-04-10T07:09:40.615Z,18.16
2023-04-10T07:10:41.139Z,18.42
2023-04-10T07:11:41.880Z,18.66
2023-04-10T07:12:42.170Z,18.79
2023-04-10T07:13:42.958Z,18.94
2023-04-10T07:14:43.658Z,18.91
2023-04-10T07:15:45.176Z,18.91
2023-04-10T07:16:46.509Z,18.94
2023-04-10T07:17:46.503Z,18.82
2023-04-10T07:18:48.150Z,18.76
2023-04-10T07:19:47.995Z,18.74
2023-04-10T07:20:48.965Z,18.55
2023-04-10T07:21:49.333Z,18.27
2023-04-10T07:22:49.884Z,18.16
2023-04-10T07:23:50.241Z,18.39
2023-04-10T07:24:51.097Z,18.41
2023-04-10T07:25:52.054Z,18.49
2023-04-10T07:26:52.784Z,18.6
2023-04-10T07:27:53.310Z,18.66
2023-04-10T07:28:54.539Z,18.71
2023-04-10T07:29:54.358Z,18.66
2023-04-10T07:30:55.058Z,18.57
2023-04-10T07:31:55.815Z,18.53
2023-04-10T07:32:56.919Z,18.23
2023-04-10T07:33:57.039Z,18.15
2023-04-10T07:34:58.329Z,18.12
2023-04-10T07:35:59.358Z,18
2023-04-10T07:37:00.190Z,17.86
2023-04-10T07:38:00.934Z,17.73
2023-04-10T07:39:02.121Z,17.5
2023-04-10T07:40:03.218Z,17.49
2023-04-10T07:41:03.940Z,17.34
2023-04-10T07:42:04.466Z,17.23
2023-04-10T07:43:04.969Z,17.24
2023-04-10T07:44:05.735Z,17.27
2023-04-10T07:45:06.373Z,17.35
2023-04-10T07:46:07.473Z,17.39
2023-04-10T07:47:07.588Z,17.37
2023-04-10T07:48:08.531Z,17.47
2023-04-10T07:49:09.410Z,17.66
2023-04-10T07:50:08.738Z,17.68
2023-04-10T07:51:09.310Z,17.91
2023-04-10T07:52:10.063Z,18.09
2023-04-10T07:53:10.626Z,18.26
2023-04-10T07:54:11.225Z,18.45
2023-04-10T07:55:12.309Z,18.39
2023-04-10T07:56:12.824Z,18.51
2023-04-10T07:57:13.546Z,18.6
2023-04-10T07:58:13.876Z,18.68
2023-04-10T07:59:14.407Z,18.81
2023-04-10T08:00:14.915Z,18.91
2023-04-10T08:01:15.434Z,19.05
2023-04-10T08:02:16.619Z,19.11
2023-04-10T08:03:17.359Z,19.19
2023-04-10T08:04:18.458Z,19.2
2023-04-10T08:05:18.553Z,19.26
2023-04-10T08:06:19.459Z,19.27
2023-04-10T08:07:20.175Z,19.42
2023-04-10T08:08:20.762Z,19.37
2023-04-10T08:09:21.702Z,19.32
2023-04-10T08:10:22.881Z,19.23
2023-04-10T08:11:23.410Z,19.12
2023-04-10T08:12:23.350Z,19.07
2023-04-10T08:13:23.662Z,19.05
2023-04-10T08:14:24.445Z,18.86
2023-04-10T08:15:24.797Z,18.76
2023-04-10T08:16:25.426Z,18.88
2023-04-10T08:17:25.702Z,19.11
2023-04-10T08:18:26.291Z,19.19
2023-04-10T08:19:26.810Z,19.45
2023-04-10T08:20:27.616Z,19.56
2023-04-10T08:21:28.750Z,19.78
2023-04-10T08:22:29.275Z,19.96
2023-04-10T08:23:30.432Z,20.22
2023-04-10T08:24:30.581Z,20.33
2023-04-10T08:25:31.447Z,20.24
2023-04-10T08:26:31.973Z,20.36
2023-04-10T08:27:32.480Z,20.4
2023-04-10T08:28:33.200Z,20.53
2023-04-10T08:29:33.531Z,20.6
2023-04-10T08:30:34.290Z,20.68
2023-04-10T08:31:35.079Z,20.85
2023-04-10T08:32:36.119Z,21.01
2023-04-10T08:33:35.721Z,21.4
2023-04-10T08:34:36.650Z,21.62
2023-04-10T08:35:37.065Z,21.81
2023-04-10T08:36:37.738Z,21.91
2023-04-10T08:37:38.602Z,21.77
2023-04-10T08:38:39.536Z,21.56
2023-04-10T08:39:40.285Z,21.38
2023-04-10T08:40:41.012Z,20.92
2023-04-10T08:41:41.608Z,20.32
2023-04-10T08:42:42.375Z,19.84
2023-04-10T08:43:42.899Z,19.66
2023-04-10T08:44:43.398Z,19.81
2023-04-10T08:45:43.950Z,19.9
2023-04-10T08:46:44.612Z,19.96
2023-04-10T08:47:45.443Z,20.04
2023-04-10T08:48:45.113Z,19.94
2023-04-10T08:49:45.631Z,19.92
2023-04-10T08:50:46.424Z,19.72
2023-04-10T08:51:49.184Z,19.62
2023-04-10T08:52:46.731Z,19.53
2023-04-10T08:53:47.496Z,19.39
2023-04-10T08:54:47.481Z,19.23
2023-04-10T08:55:48.386Z,19.32
2023-04-10T08:56:48.935Z,19.47
2023-04-10T08:58:02.188Z,19.57
2023-04-10T08:59:50.915Z,19.77
2023-04-10T09:00:51.680Z,19.52
2023-04-10T09:01:52.584Z,19.47
2023-04-10T09:02:53.441Z,19.39
2023-04-10T09:03:53.945Z,19.34
2023-04-10T09:04:53.901Z,19.44
2023-04-10T09:05:54.742Z,19.63
2023-04-10T09:06:55.292Z,19.84
2023-04-10T09:07:55.852Z,20.04
2023-04-10T09:08:56.983Z,20.26
2023-04-10T09:09:57.492Z,20.29
2023-04-10T09:11:01.459Z,20.6
2023-04-10T09:12:59.882Z,21.25
2023-04-10T09:14:00.939Z,21.38
2023-04-10T09:15:01.870Z,21.3
2023-04-10T09:16:02.790Z,21.33
2023-04-10T09:17:03.336Z,21.48
2023-04-10T09:18:04.230Z,21.54
2023-04-10T09:19:07.769Z,21.84
2023-04-10T09:20:04.616Z,22.1
2023-04-10T09:21:04.937Z,22.31
2023-04-10T09:22:06.002Z,22.31
2023-04-10T09:23:06.527Z,22.51
2023-04-10T09:24:06.895Z,22.62
2023-04-10T09:25:07.572Z,22.78
2023-04-10T09:26:08.328Z,22.98
2023-04-10T09:27:09.082Z,23.16
2023-04-10T09:28:10.930Z,23.45
2023-04-10T09:29:10.649Z,23.66
2023-04-10T09:30:11.623Z,23.73
2023-04-10T09:31:12.201Z,23.73
2023-04-10T09:32:13.525Z,23.64
2023-04-10T09:34:13.619Z,23.67
2023-04-10T09:35:14.526Z,23.56
2023-04-10T09:36:15.252Z,23.32
2023-04-10T09:37:16.283Z,23.25
2023-04-10T09:38:16.578Z,23.11
2023-04-10T09:39:17.358Z,22.91
2023-04-10T09:40:17.935Z,22.77
2023-04-10T09:41:18.474Z,22.58
2023-04-10T09:42:19.334Z,22.53
2023-04-10T09:43:19.831Z,22.38
2023-04-10T09:44:20.569Z,22.41
2023-04-10T09:45:21.394Z,22.21
2023-04-10T09:46:22.462Z,22.26
2023-04-10T09:47:23.342Z,22.36
2023-04-10T09:48:24.192Z,22.25
2023-04-10T09:49:25.110Z,22.1
2023-04-10T09:50:25.674Z,22.19
2023-04-10T09:51:26.263Z,22.25
2023-04-10T09:52:27.072Z,22.22
2023-04-10T09:53:27.595Z,22.12
2023-04-10T09:54:28.571Z,22.16
2023-04-10T09:55:30.623Z,22.14
2023-04-10T09:57:30.517Z,22.63
2023-04-10T09:58:31.017Z,22.93
2023-04-10T09:59:31.705Z,22.99
2023-04-10T10:01:33.386Z,23.06
2023-04-10T10:02:33.965Z,23.08
2023-04-10T10:03:34.991Z,22.98
2023-04-10T10:04:35.321Z,22.95
2023-04-10T10:05:36.054Z,22.62
2023-04-10T10:06:36.673Z,22.36
2023-04-10T10:07:37.073Z,22.1
2023-04-10T10:08:38.004Z,21.81
2023-04-10T10:09:38.825Z,21.72
2023-04-10T10:10:39.981Z,21.85
2023-04-10T10:11:40.741Z,22.04
2023-04-10T10:12:41.493Z,22.12
2023-04-10T10:14:43.385Z,21.75
2023-04-10T10:15:46.625Z,21.69
2023-04-10T10:17:44.762Z,22
2023-04-10T10:18:45.537Z,22.16
2023-04-10T10:19:46.516Z,22.34
2023-04-10T10:20:47.026Z,22.52
2023-04-10T10:21:47.727Z,22.8
2023-04-10T10:22:48.662Z,22.8
2023-04-10T10:23:49.263Z,22.74
2023-04-10T10:24:49.878Z,22.81
2023-04-10T10:25:50.678Z,22.59
2023-04-10T10:26:51.410Z,22.38
2023-04-10T10:27:52.158Z,22.1
2023-04-10T10:28:52.648Z,22.12
2023-04-10T10:29:52.681Z,22.25
2023-04-10T10:30:53.162Z,22.37
2023-04-10T10:31:54.414Z,22.52
2023-04-10T10:32:54.731Z,22.62
2023-04-10T10:33:55.137Z,22.65
2023-04-10T10:34:56.052Z,22.61
2023-04-10T10:35:56.857Z,22.52
2023-04-10T10:36:57.452Z,22.47
2023-04-10T10:37:58.198Z,22.55
2023-04-10T10:38:59.847Z,22.65
2023-04-10T10:41:00.292Z,23.1
2023-04-10T10:42:00.801Z,23.33
2023-04-10T10:43:01.671Z,23.18
2023-04-10T10:44:02.398Z,23.1
2023-04-10T10:45:05.328Z,22.74
2023-04-10T10:47:05.058Z,22.63
2023-04-10T10:48:05.895Z,22.51
2023-04-10T10:49:06.871Z,22.36
2023-04-10T10:50:07.451Z,22.3
2023-04-10T10:51:07.880Z,22.36
2023-04-10T10:52:08.441Z,22.51
2023-04-10T10:53:08.974Z,22.61
2023-04-10T10:54:09.666Z,22.73
2023-04-10T10:55:09.986Z,22.93
2023-04-10T10:56:10.970Z,23.17
2023-04-10T10:57:11.627Z,23.29
2023-04-10T10:58:12.402Z,23.32
2023-04-10T10:59:12.924Z,23.01
2023-04-10T11:00:13.448Z,22.63
2023-04-10T11:01:16.591Z,22.26
2023-04-10T11:03:16.023Z,21.99
2023-04-10T11:04:15.744Z,21.92
2023-04-10T11:05:16.719Z,22.07
2023-04-10T11:06:17.502Z,21.99
2023-04-10T11:07:17.636Z,21.88
2023-04-10T11:08:18.404Z,21.63
2023-04-10T11:09:19.122Z,21.38
2023-04-10T11:10:19.861Z,21.1
2023-04-10T11:11:20.010Z,21.2
2023-04-10T11:12:20.815Z,21.19
2023-04-10T11:13:21.660Z,21.3
2023-04-10T11:14:22.235Z,21.35
2023-04-10T11:15:22.823Z,21.5
2023-04-10T11:16:23.208Z,21.62
2023-04-10T11:17:23.922Z,21.72
2023-04-10T11:18:24.128Z,21.69
2023-04-10T11:19:28.836Z,21.69
2023-04-10T11:21:25.825Z,21.63
2023-04-10T11:22:26.363Z,21.63
2023-04-10T11:23:27.347Z,21.66
2023-04-10T11:24:27.666Z,21.85
2023-04-10T11:25:28.196Z,22.01
2023-04-10T11:26:29.171Z,22.15
2023-04-10T11:27:31.922Z,22.22
2023-04-10T11:29:31.419Z,22.07
2023-04-10T11:30:31.739Z,22.12
2023-04-10T11:31:32.578Z,22
2023-04-10T11:32:33.425Z,21.99
2023-04-10T11:33:34.045Z,21.88
2023-04-10T11:34:34.596Z,21.85
2023-04-10T11:35:35.860Z,21.59
2023-04-10T11:36:36.732Z,21.48
2023-04-10T11:37:37.159Z,21.62
2023-04-10T11:38:37.708Z,21.62
2023-04-10T11:39:38.677Z,21.81
2023-04-10T11:40:39.563Z,21.85
2023-04-10T11:41:39.320Z,21.88
2023-04-10T11:42:39.852Z,22.07
2023-04-10T11:43:40.206Z,22.15
2023-04-10T11:44:40.876Z,22.25
2023-04-10T11:45:41.874Z,22.33
2023-04-10T11:46:42.492Z,22.47
2023-04-10T11:47:42.970Z,22.51
2023-04-10T11:48:43.805Z,22.36
2023-04-10T11:49:44.727Z,22.23
2023-04-10T11:50:45.740Z,22.19
2023-04-10T11:51:45.467Z,22.06
2023-04-10T11:52:46.203Z,21.88
2023-04-10T11:53:46.805Z,22.07
2023-04-10T11:54:47.374Z,22.1
2023-04-10T11:55:48.142Z,22.21
2023-04-10T11:56:48.899Z,22.25
2023-04-10T11:57:49.338Z,22.19
2023-04-10T11:58:50.282Z,22.25
2023-04-10T11:59:50.942Z,22.31
2023-04-10T12:00:51.882Z,22.38
2023-04-10T12:01:52.046Z,22.44
2023-04-10T12:02:53.950Z,22.38
2023-04-10T12:03:54.552Z,22.41
2023-04-10T12:04:55.319Z,22.41
2023-04-10T12:05:55.635Z,22.43
2023-04-10T12:06:56.082Z,22.25
2023-04-10T12:07:56.307Z,22.37
2023-04-10T12:08:57.971Z,22.46
2023-04-10T12:09:57.818Z,22.56
2023-04-10T12:10:58.805Z,22.61
2023-04-10T12:11:59.617Z,22.71
2023-04-10T12:13:00.410Z,22.78
2023-04-10T12:14:01.417Z,22.84
2023-04-10T12:15:02.186Z,22.86
2023-04-10T12:16:02.834Z,22.83
2023-04-10T12:17:03.772Z,23.02
2023-04-10T12:18:04.386Z,23.02
2023-04-10T12:19:04.944Z,22.95
2023-04-10T12:20:05.594Z,22.91
2023-04-10T12:21:08.966Z,23.1
2023-04-10T12:22:06.402Z,23.14
2023-04-10T12:23:07.308Z,23.11
2023-04-10T12:24:07.680Z,23.08
2023-04-10T12:25:08.430Z,23.08
2023-04-10T12:26:08.432Z,23.16
2023-04-10T12:27:09.204Z,22.96
2023-04-10T12:28:09.848Z,22.84
2023-04-10T12:29:10.578Z,22.78
2023-04-10T12:30:11.496Z,22.65
2023-04-10T12:31:12.615Z,22.4
2023-04-10T12:32:13.582Z,22.15
2023-04-10T12:33:14.459Z,22.26
2023-04-10T12:34:16.964Z,22.26
2023-04-10T12:36:16.332Z,22.07
2023-04-10T12:37:17.049Z,22.21
2023-04-10T12:38:17.472Z,22.3
2023-04-10T12:39:18.013Z,22.33
2023-04-10T12:40:18.558Z,22.22
2023-04-10T12:41:19.102Z,22.41
2023-04-10T12:42:19.268Z,22.51
2023-04-10T12:43:20.001Z,22.7
2023-04-10T12:44:19.923Z,22.77
2023-04-10T12:45:20.460Z,22.74
2023-04-10T12:46:21.238Z,22.8
2023-04-10T12:47:21.399Z,22.58
2023-04-10T12:48:22.151Z,22.12
2023-04-10T12:49:22.854Z,21.88
2023-04-10T12:50:23.430Z,21.62
2023-04-10T12:51:23.765Z,21.56
2023-04-10T12:52:24.259Z,21.7
2023-04-10T12:53:25.043Z,21.75
2023-04-10T12:54:26.031Z,21.84
2023-04-10T12:55:26.680Z,22.1
2023-04-10T12:56:27.061Z,22.14
2023-04-10T12:57:28.190Z,22.15
2023-04-10T12:58:28.927Z,22.16
2023-04-10T12:59:30.364Z,22.19
2023-04-10T13:00:30.261Z,22.1
2023-04-10T13:01:30.827Z,22.14
2023-04-10T13:02:31.717Z,22.33
2023-04-10T13:03:33.074Z,22.37
2023-04-10T13:04:34.019Z,22.46
2023-04-10T13:05:34.422Z,22.52
2023-04-10T13:06:36.224Z,22.51
2023-04-10T13:07:35.629Z,22.51
2023-04-10T13:08:35.569Z,22.61
2023-04-10T13:09:36.110Z,22.67
2023-04-10T13:10:36.823Z,22.62
2023-04-10T13:11:37.677Z,22.47
2023-04-10T13:12:37.938Z,22.3
2023-04-10T13:13:38.948Z,22.25
2023-04-10T13:14:39.467Z,22.22
2023-04-10T13:15:40.170Z,22.25
2023-04-10T13:16:41.463Z,22.22
2023-04-10T13:17:41.246Z,22.31
2023-04-10T13:18:41.623Z,22.18
2023-04-10T13:19:41.924Z,22.08
2023-04-10T13:20:42.029Z,22.08
2023-04-10T13:21:42.568Z,21.97
2023-04-10T13:22:43.290Z,21.7
2023-04-10T13:23:43.967Z,21.65
2023-04-10T13:24:44.952Z,21.6
2023-04-10T13:25:45.807Z,21.38
2023-04-10T13:26:46.770Z,21.25
2023-04-10T13:27:47.708Z,21.15
2023-04-10T13:28:48.096Z,21.08
2023-04-10T13:29:49.413Z,21
2023-04-10T13:30:50.127Z,20.96
2023-04-10T13:31:51.029Z,20.93
2023-04-10T13:32:51.140Z,20.78
2023-04-10T13:33:51.787Z,20.71